Rockville, Indiana
Current Conditions -  °F | °C
As of 2:53 PM on Monday 26 Jan 2015 (Local Time) from KHUF Reporting Station
Overcast Overcast  
Wind Chill: 22°   Ceiling: 2500
Heat Index: 30°   Visibility: 10mi
Dew Point: 21°   Wind: 8mph
Humidity: 69%   Direction: 270°W
Pressure: 29.93"   Gusts: NA
Location:  39.76°N, 87.23°W
Report Text: KHUF 261953Z 27007KT 10SM OVC025 M01/M06 A2993 RMK AO2 SLP141 T10111061
Loading
Personal Weather Stations






























Interactive Weather Map New forecast layout! Learn more

10-Day Weather Forecast

Advertisements
Track Severe Weather on mobile